• Join FlightAware (Why Join?)
  • Login
  • US Flag 
01:34AM EDT


 

Airport Tracker/Info


-or-


 

Live Flight TrackerFlight Track Log ✈ N51960 ✈ 24-Jun-2013 ✈ KVIS - KMER

Flight Track Log - Related Links

Times and Time Zones

All times are in EDT time to prevent confusion due to time zone crossing. See the N51960 flight status page for this flight to view local times or setup timezone preferences in your user account.

Time Position Orientation Groundspeed Altitude Reporting Facility
EDT Latitude Longitude Course Direction KTS MPH feet Rate Location/Type
04:10PM 36.4019 -119.5206 316° Northwest 87 100 3,900  Level Oakland Center
04:11PM 36.4192 -119.5408 317° Northwest 87 100 4,500 420 Climbing Oakland Center
04:12PM 36.4392 -119.5581 325° Northwest 87 100 4,800 300 Climbing Oakland Center
04:13PM 36.3869 -119.5601 338° Northwest  Level FlightAware Approximate
04:13PM 36.4647 -119.5647 348° North 92 106 5,200  Level Oakland Center
04:14PM 36.4126 -119.5730 338° Northwest  Level FlightAware Approximate
04:14PM 36.4886 -119.5694 351° North 87 100 5,600  Level Oakland Center
04:15PM 36.5122 -119.5817 337° Northwest 92 106 6,000 360 Climbing Oakland Center
04:16PM 36.5394 -119.5997 332° Northwest 92 106 6,400 360 Climbing Oakland Center
04:17PM 36.5631 -119.6128 336° Northwest 92 106 6,800 240 Climbing Oakland Center
04:18PM 36.5833 -119.6311 324° Northwest 91 105 6,900 240 Climbing Oakland Center
04:19PM 36.6031 -119.6464 328° Northwest 85 98 7,300 240 Climbing Oakland Center
04:20PM 36.6250 -119.6586 336° Northwest 85 98 7,400 120 Climbing Oakland Center
04:21PM 36.6467 -119.6736 331° Northwest 87 100 7,600 120 Climbing Oakland Center
04:22PM 36.6711 -119.6881 335° Northwest 95 109 7,700 60 Climbing Oakland Center
04:23PM 36.6986 -119.6983 343° North 102 117 7,800  Climbing Oakland Center
04:24PM 36.7239 -119.7161 331° Northwest 101 116 7,800  Level Oakland Center
04:25PM 36.7514 -119.7422 323° Northwest 103 119 7,800  Level Oakland Center
04:26PM 36.7781 -119.7564 337° Northwest 106 122 7,800  Level Oakland Center
04:27PM 36.8072 -119.7633 349° North 106 122 7,800  Level Oakland Center
04:28PM 36.8311 -119.7864 322° Northwest 107 123 7,800  Level Oakland Center
04:29PM 36.8597 -119.7994 340° North 110 127 7,800  Level Oakland Center
04:30PM 36.8833 -119.8194 326° Northwest 105 121 7,900  Climbing Oakland Center
04:31PM 36.9072 -119.8403 325° Northwest 105 121 7,900  Level Oakland Center
04:32PM 36.9319 -119.8600 327° Northwest 105 121 7,900  Level Oakland Center
04:33PM 36.9550 -119.8831 321° Northwest 106 122 8,000  Climbing Oakland Center
04:34PM 36.9856 -119.9064 329° Northwest 108 124 8,000  Level Oakland Center
04:35PM 37.0092 -119.9281 324° Northwest 107 123 8,000  Level Oakland Center
04:36PM 37.0306 -119.9539 316° Northwest 107 123 8,000  Level Oakland Center
04:37PM 37.0544 -119.9761 323° Northwest 109 125 8,000  Level Oakland Center
04:38PM 37.0844 -119.9933 335° Northwest 110 127 8,000  Level Oakland Center
04:39PM 37.1089 -120.0128 328° Northwest 107 123 8,000  Level Oakland Center
04:40PM 37.1358 -120.0361 325° Northwest 111 128 8,000  Level Oakland Center
04:41PM 37.1503 -120.0681 300° West 110 127 8,000  Level Oakland Center
04:42PM 37.1533 -120.1036 276° West 102 117 8,000 -180 Level Oakland Center
04:43PM 37.1747 -120.1342 311° West 115 132 7,700 -360 Descending Oakland Center
04:45PM 37.1922 -120.1689 302° West 111 128 7,300 -480 Descending Oakland Center
04:46PM 37.2011 -120.2083 286° West 118 136 6,800 -540 Descending Oakland Center
04:47PM 37.2161 -120.2500 294° West 122 140 6,200 -660 Descending Oakland Center
04:48PM 37.2342 -120.2858 302° West 124 143 5,500 -720 Descending Oakland Center
04:49PM 37.2511 -120.3236 299° West 119 137 4,800 -600 Descending Oakland Center
04:50PM 37.2547 -120.3611 277° West 111 128 4,300 -540 Descending Oakland Center
04:50PM 37.2667 -120.3833 304° West 114 131 4,000 -660 Descending Northern Cal TRACON
04:51PM 37.2667 -120.4167 270° West 109 125 3,300 -900 Descending Northern Cal TRACON
04:52PM 37.2833 -120.4500 302° West 106 122 2,300 -780 Descending Northern Cal TRACON
04:53PM 37.3000 -120.4833 302° West 97 112 1,800 -300 Descending Northern Cal TRACON
04:54PM 37.3167 -120.5000 322° Northwest 97 112 1,700 -420 Descending Northern Cal TRACON
04:55PM 37.3333 -120.5333 302° West 105 121 1,000 -600 Descending Northern Cal TRACON
04:56PM 37.3667 -120.5500 338° Northwest 105 121 500 -540 Descending Northern Cal TRACON
04:58PM 37.3667 -120.5667 313° West  Level FlightAware Approximate
05:05PM 37.3805 -120.5682 313° West  Level Estimated